Airfield :
LOGIN :

Register | Disclaimer

   EN    FR    IT 

 










Legend :    VFR   Marginal VFR   IFR   Intensive IFR   Very Intensive IFR
Visi :
Ceiling :
>= 8 km
>= 3000ft
5 to 8 km
1000 to 3000 ft
1500m to 5 km
500 to 1000 ft
800 to 1500m
200 to 500 ft
< 800m
< 200 ft
Symbols :   Thunderstorms  Fog  Heavy snow  Heavy precipitations  Wind > 20 kt
SIGMETs :     Misc.  Thunderstorms  Icing  Turbulence  Mountain Waves  Volcanic Ashes






- Airport Elevation : 26 ft
- IATA code : SYY


EGPO - Stornoway

CURRENT METAR :
  • 242250Z AUTO 17008KT 4600 -DZ BKN001/// BKN004/// OVC012/// 14/13 Q1005 RERA

EXPIRED METARs :
  • 242220Z AUTO 16005KT 2400 +RA FEW002/// SCT008/// BKN014/// 14/13 Q1005
  • 242150Z AUTO 16007KT 6000 -RA SCT015/// OVC022/// 14/13 Q1005
  • 242120Z AUTO 16007KT 9999 FEW003/// SCT010/// BKN024/// 14/13 Q1006
  • 242050Z 15004KT 4000 -RADZ FEW002 BKN007 OVC015 14/13 Q1006
  • 242020Z 15007KT 3000 -RADZ FEW002 BKN004 OVC010 14/13 Q1007
  • 241950Z 13007KT 5000 -RADZ FEW003 SCT010 OVC014 14/13 Q1007
  • 241920Z 13005KT 4000 -RADZ FEW003 SCT010 OVC015 14/13 Q1007
  • 241850Z 17003KT 9000 4000NW -DZ FEW006 SCT014 OVC025 14/13 Q1008
  • 241820Z 14002KT 9999 7000NW -DZ FEW006 SCT011 BKN028 14/13 Q1008

TAF AMD TAF EGPO
Valid from the 24 at 22:00 until the 25 at 06:00 UTC


242242Z 2422/2506 14009KT 9999 FEW007 SCT010
TEMPO 2422/2506 6000 -RADZ BKN007
PROB40
TEMPO 2422/2423 2000 +RA RADZ BKN003
PROB30
TEMPO 2422/2424 16015G25KT
PROB40
TEMPO 2423/2504 2000 RADZ BR BKN001
BECMG 2500/2503 22010KT
ATIS : +44 1851 707 444



MET'MAP, your aeronautical weather chart ! - Copyright ORBIFLY December 2007 - Disclaimer

ORBIFLY MET'MAP TEAM :

Programming & Development : Alexandra Zaïnal
Original concept : Baudouin d'Aumeries
Technical & hardware support : Manuel Goepfert
Assistance : Marc-Olivier Méhu




SOURCES & CREDITS :

   NOAA